Pittsburgh, Pennsylvania
Traffic Map
Current Weather Conditions
Pittsburgh, Pennsylvania
Clear
Clear
36°
Feels Like: 32°
Wind Chill: 32° Ceiling: Unl
Heat Index: 36° Visibility: 10mi
Dew Point: 13° Wind: 5mph
Humidity: 39% Direction: 330° (NNW)
Pressure: 30.09in Gusts: 0mph
Raw Report DataKAGC 240853Z AUTO 33004KT 10SM CLR 02/M11 A3009 RMK AO2 SLP200 T00221106 53002 TSNO
Traffic Incident Summary
Active as of:
Severity:
Category:
InformationThere was an issue retrieving the traffic information for this location. Please try a different location or try again shortly.
Advertisements
At Last! Intellicast now available for iPhone and Android